createdAt,value
2018-12-12T00:01:11.964Z,1.50
2018-12-12T00:06:03.153Z,1.50
2018-12-12T00:10:56.869Z,1.40
2018-12-12T00:15:50.891Z,1.40
2018-12-12T00:20:44.898Z,1.40
2018-12-12T00:25:32.264Z,1.50
2018-12-12T00:30:28.106Z,1.40
2018-12-12T00:35:17.978Z,1.50
2018-12-12T00:40:12.158Z,1.40
2018-12-12T00:45:08.048Z,1.50
2018-12-12T00:49:53.900Z,1.50
2018-12-12T00:54:41.426Z,1.50
2018-12-12T00:59:28.502Z,1.50
2018-12-12T01:09:26.989Z,1.50
2018-12-12T01:24:56.103Z,1.50
2018-12-12T01:29:43.921Z,1.50
2018-12-12T01:34:38.085Z,1.50
2018-12-12T01:39:23.452Z,1.50
2018-12-12T01:44:10.899Z,1.50
2018-12-12T01:49:13.815Z,1.50
2018-12-12T01:59:18.229Z,1.50
2018-12-12T02:04:05.967Z,1.50
2018-12-12T02:08:55.788Z,1.50
2018-12-12T02:13:43.255Z,1.50
2018-12-12T02:23:48.531Z,1.40
2018-12-12T02:34:01.033Z,1.40
2018-12-12T02:38:45.190Z,1.50
2018-12-12T02:43:28.883Z,1.50
2018-12-12T02:48:12.601Z,1.40
2018-12-12T02:52:56.332Z,1.40
2018-12-12T02:57:40.028Z,1.40
2018-12-12T03:02:24.041Z,1.40
2018-12-12T03:07:07.856Z,1.40
2018-12-12T03:11:51.575Z,1.30
2018-12-12T03:16:35.342Z,1.30
2018-12-12T03:21:19.234Z,1.40
2018-12-12T03:26:02.975Z,1.50
2018-12-12T03:30:46.741Z,1.40
2018-12-12T03:35:30.655Z,1.40
2018-12-12T03:40:14.317Z,1.40
2018-12-12T03:44:58.279Z,1.40
2018-12-12T03:49:42.090Z,1.40
2018-12-12T03:54:26.129Z,1.40
2018-12-12T03:59:09.907Z,1.50
2018-12-12T04:04:00.025Z,1.40
2018-12-12T04:08:46.971Z,1.30
2018-12-12T04:13:46.609Z,1.30
2018-12-12T04:18:46.303Z,1.30
2018-12-12T04:28:48.777Z,1.20
2018-12-12T04:59:50.227Z,1.20
2018-12-12T05:04:33.968Z,1.10
2018-12-12T05:09:17.646Z,1.20
2018-12-12T05:14:01.541Z,1.20
2018-12-12T05:18:53.356Z,1.40
2018-12-12T05:23:41.101Z,1.20
2018-12-12T05:28:29.049Z,1.30
2018-12-12T05:33:16.668Z,1.30
2018-12-12T05:38:06.261Z,1.30
2018-12-12T05:48:11.090Z,1.30
2018-12-12T05:53:16.705Z,1.30
2018-12-12T06:03:21.821Z,1.30
2018-12-12T06:08:15.743Z,1.30
2018-12-12T06:18:16.075Z,1.40
2018-12-12T06:23:01.829Z,1.30
2018-12-12T06:27:50.947Z,1.20
2018-12-12T06:32:40.828Z,1.10
2018-12-12T06:37:28.649Z,1.20
2018-12-12T06:47:23.230Z,1.20
2018-12-12T06:52:07.044Z,1.30
2018-12-12T06:56:50.717Z,1.30
2018-12-12T07:01:34.646Z,1.30
2018-12-12T07:06:18.388Z,1.40
2018-12-12T07:11:02.170Z,1.40
2018-12-12T07:16:01.900Z,1.40
2018-12-12T07:20:52.090Z,1.40
2018-12-12T07:30:47.357Z,1.40
2018-12-12T07:40:42.870Z,1.40
2018-12-12T07:45:26.638Z,1.40
2018-12-12T07:50:16.206Z,1.50
2018-12-12T07:55:01.796Z,1.50
2018-12-12T07:59:48.873Z,1.60
2018-12-12T08:04:42.316Z,1.60
2018-12-12T08:09:29.858Z,1.60
2018-12-12T08:14:32.141Z,1.70
2018-12-12T08:19:34.400Z,1.60
2018-12-12T08:24:22.767Z,1.50
2018-12-12T08:29:07.940Z,1.40
2018-12-12T08:33:57.338Z,1.40
2018-12-12T08:38:52.764Z,1.40
2018-12-12T08:43:38.239Z,1.50
2018-12-12T08:48:34.268Z,1.60
2018-12-12T09:03:53.176Z,1.70
2018-12-12T09:08:43.540Z,1.70
2018-12-12T09:18:42.019Z,1.70
2018-12-12T09:33:47.690Z,1.70
2018-12-12T09:38:31.395Z,1.80
2018-12-12T09:43:15.194Z,1.80
2018-12-12T09:47:59.047Z,1.80
2018-12-12T09:52:42.843Z,1.90
2018-12-12T09:57:26.561Z,1.90
2018-12-12T10:02:10.330Z,2.00
2018-12-12T10:06:53.994Z,2.10
2018-12-12T10:11:37.784Z,2.00
2018-12-12T10:16:21.789Z,2.00
2018-12-12T10:21:05.490Z,2.10
2018-12-12T10:25:49.563Z,2.20
2018-12-12T10:30:33.329Z,2.20
2018-12-12T10:35:17.277Z,2.20
2018-12-12T10:40:00.985Z,2.20
2018-12-12T10:44:44.770Z,2.30
2018-12-12T10:49:28.671Z,2.40
2018-12-12T10:54:12.499Z,2.40
2018-12-12T10:58:56.212Z,2.40
2018-12-12T11:03:44.181Z,2.20
2018-12-12T11:08:26.945Z,2.20
2018-12-12T11:13:10.707Z,2.30
2018-12-12T11:17:54.406Z,2.30
2018-12-12T11:22:38.117Z,2.40
2018-12-12T11:27:21.955Z,2.50
2018-12-12T11:32:05.714Z,2.60
2018-12-12T11:36:49.377Z,2.70
2018-12-12T11:41:33.121Z,2.90
2018-12-12T11:46:16.847Z,2.90
2018-12-12T11:51:00.714Z,2.80
2018-12-12T11:55:44.451Z,2.90
2018-12-12T12:00:28.283Z,2.80
2018-12-12T12:05:12.070Z,2.80
2018-12-12T12:09:56.302Z,3.00
2018-12-12T12:14:40.064Z,3.00
2018-12-12T12:19:23.772Z,3.10
2018-12-12T12:24:07.562Z,3.00
2018-12-12T12:28:51.403Z,2.80
2018-12-12T12:33:35.241Z,2.80
2018-12-12T12:38:19.110Z,2.90
2018-12-12T12:43:02.915Z,3.10
2018-12-12T12:47:46.779Z,3.20
2018-12-12T12:52:30.516Z,3.10
2018-12-12T12:57:14.169Z,3.10
2018-12-12T13:01:57.945Z,2.90
2018-12-12T13:06:41.757Z,2.80
2018-12-12T13:11:25.627Z,2.70
2018-12-12T13:16:09.419Z,2.50
2018-12-12T13:20:53.391Z,2.50
2018-12-12T13:25:37.180Z,2.40
2018-12-12T13:30:21.008Z,2.40
2018-12-12T13:35:05.249Z,2.40
2018-12-12T13:39:50.553Z,2.30
2018-12-12T13:44:43.466Z,2.30
2018-12-12T13:49:27.117Z,2.30
2018-12-12T13:54:10.808Z,2.20
2018-12-12T13:58:54.513Z,2.20
2018-12-12T14:03:38.146Z,2.10
2018-12-12T14:08:54.617Z,2.10
2018-12-12T14:29:18.805Z,1.90
2018-12-12T14:34:02.813Z,1.80
2018-12-12T14:38:49.423Z,1.70
2018-12-12T14:54:01.470Z,1.40
2018-12-12T14:59:07.262Z,1.30
2018-12-12T15:04:02.705Z,1.20
2018-12-12T15:08:52.111Z,1.30
2018-12-12T15:18:49.264Z,1.40
2018-12-12T15:23:33.029Z,1.40
2018-12-12T15:28:16.765Z,1.40
2018-12-12T15:33:00.618Z,1.30
2018-12-12T15:37:44.492Z,1.30
2018-12-12T15:42:28.149Z,1.20
2018-12-12T15:47:28.492Z,1.10
2018-12-12T15:52:22.337Z,1.10
2018-12-12T15:57:06.292Z,1.00
2018-12-12T16:01:50.061Z,1.00
2018-12-12T16:06:33.820Z,1.00
2018-12-12T16:11:17.641Z,1.20
2018-12-12T16:16:01.480Z,1.20
2018-12-12T16:20:45.349Z,1.30
2018-12-12T16:25:29.188Z,1.40
2018-12-12T16:30:12.946Z,1.20
2018-12-12T16:34:56.699Z,1.10
2018-12-12T16:39:42.043Z,1.10
2018-12-12T16:44:26.076Z,1.10
2018-12-12T16:49:15.531Z,1.00
2018-12-12T16:54:09.452Z,1.10
2018-12-12T16:58:56.500Z,1.20
2018-12-12T17:03:40.400Z,1.30
2018-12-12T17:08:24.287Z,1.30
2018-12-12T17:13:08.130Z,1.40
2018-12-12T17:17:51.884Z,1.30
2018-12-12T17:22:35.644Z,1.20
2018-12-12T17:27:19.629Z,1.00
2018-12-12T17:32:03.261Z,0.70
2018-12-12T17:36:47.072Z,0.50
2018-12-12T17:41:30.952Z,0.20
2018-12-12T17:46:14.756Z,0.00
2018-12-12T17:51:01.711Z,-0.20
2018-12-12T17:56:07.188Z,-0.50
2018-12-12T18:00:51.202Z,-0.70
2018-12-12T18:05:34.927Z,-0.50
2018-12-12T18:10:18.798Z,-0.20
2018-12-12T18:15:02.549Z,0.00
2018-12-12T18:19:46.228Z,0.20
2018-12-12T18:24:31.927Z,0.20
2018-12-12T18:29:34.146Z,0.20
2018-12-12T18:34:23.351Z,0.20
2018-12-12T18:39:16.547Z,0.30
2018-12-12T18:44:10.579Z,0.20
2018-12-12T18:49:04.114Z,0.30
2018-12-12T18:53:50.906Z,0.30
2018-12-12T18:58:38.257Z,0.30
2018-12-12T19:03:33.742Z,0.30
2018-12-12T19:08:33.687Z,0.30
2018-12-12T19:13:17.323Z,0.30
2018-12-12T19:18:01.069Z,0.30
2018-12-12T19:22:44.785Z,0.40
2018-12-12T19:27:28.633Z,0.30
2018-12-12T19:32:12.521Z,0.40
2018-12-12T19:36:56.375Z,0.30
2018-12-12T19:41:40.515Z,0.30
2018-12-12T19:46:35.851Z,0.40
2018-12-12T19:51:19.642Z,0.40
2018-12-12T19:56:03.416Z,0.40
2018-12-12T20:00:47.227Z,0.40
2018-12-12T20:05:30.967Z,0.50
2018-12-12T20:10:14.825Z,0.50
2018-12-12T20:15:05.449Z,0.50
2018-12-12T20:19:59.324Z,0.50
2018-12-12T20:29:55.129Z,0.50
2018-12-12T20:34:40.046Z,0.50
2018-12-12T20:39:24.843Z,0.50
2018-12-12T20:44:09.055Z,0.50
2018-12-12T20:48:52.833Z,0.50
2018-12-12T20:53:36.807Z,0.50
2018-12-12T20:58:20.582Z,0.40
2018-12-12T21:03:04.769Z,0.30
2018-12-12T21:07:48.624Z,0.30
2018-12-12T21:12:32.402Z,0.30
2018-12-12T21:17:16.157Z,0.40
2018-12-12T21:21:59.969Z,0.30
2018-12-12T21:26:43.717Z,0.20
2018-12-12T21:31:27.656Z,0.20
2018-12-12T21:36:11.424Z,0.30
2018-12-12T21:40:55.195Z,0.20
2018-12-12T21:45:39.159Z,0.10
2018-12-12T21:50:23.354Z,0.00
2018-12-12T21:55:07.313Z,0.00
2018-12-12T21:59:51.096Z,-0.10
2018-12-12T22:04:37.414Z,-0.20
2018-12-12T22:09:20.588Z,-0.20
2018-12-12T22:14:04.448Z,-0.20
2018-12-12T22:18:48.260Z,-0.30
2018-12-12T22:23:32.052Z,-0.30
2018-12-12T22:28:15.872Z,-0.20
2018-12-12T22:33:00.591Z,0.00
2018-12-12T22:37:44.427Z,0.00
2018-12-12T22:42:28.222Z,0.00
2018-12-12T22:47:12.959Z,0.00
2018-12-12T22:51:56.732Z,0.00
2018-12-12T22:56:40.557Z,0.10
2018-12-12T23:01:24.372Z,-0.10
2018-12-12T23:06:08.280Z,0.00
2018-12-12T23:10:52.101Z,-0.10
2018-12-12T23:15:35.794Z,0.00
2018-12-12T23:20:19.548Z,-0.10
2018-12-12T23:25:03.164Z,0.00
2018-12-12T23:29:46.874Z,-0.10
2018-12-12T23:34:30.768Z,-0.10
2018-12-12T23:39:15.499Z,-0.10
2018-12-12T23:43:59.293Z,-0.10
2018-12-12T23:48:50.588Z,-0.20
2018-12-12T23:58:45.363Z,-0.30
